sensor_id;sensor_type;location;lat;lon;timestamp;P1;durP1;ratioP1;P2;durP2;ratioP2
60700;SDS011;46541;49.894;10.886;2023-12-20T00:02:10;20.48;;;11.75;;
60700;SDS011;46541;49.894;10.886;2023-12-20T00:04:36;20.25;;;12.25;;
60700;SDS011;46541;49.894;10.886;2023-12-20T00:07:03;16.02;;;11.20;;
60700;SDS011;46541;49.894;10.886;2023-12-20T00:09:30;18.60;;;12.35;;
60700;SDS011;46541;49.894;10.886;2023-12-20T00:11:57;18.77;;;11.95;;
60700;SDS011;46541;49.894;10.886;2023-12-20T00:14:24;16.17;;;10.82;;
60700;SDS011;46541;49.894;10.886;2023-12-20T00:16:50;15.98;;;11.15;;
60700;SDS011;46541;49.894;10.886;2023-12-20T00:19:17;18.90;;;11.32;;
60700;SDS011;46541;49.894;10.886;2023-12-20T00:21:44;18.63;;;11.23;;
60700;SDS011;46541;49.894;10.886;2023-12-20T00:24:11;15.93;;;11.05;;
60700;SDS011;46541;49.894;10.886;2023-12-20T00:26:38;13.88;;;9.05;;
60700;SDS011;46541;49.894;10.886;2023-12-20T00:29:04;14.98;;;10.05;;
60700;SDS011;46541;49.894;10.886;2023-12-20T00:31:31;14.40;;;9.15;;
60700;SDS011;46541;49.894;10.886;2023-12-20T00:33:58;18.48;;;10.40;;
60700;SDS011;46541;49.894;10.886;2023-12-20T00:36:25;13.40;;;9.70;;
60700;SDS011;46541;49.894;10.886;2023-12-20T00:38:51;12.88;;;9.27;;
60700;SDS011;46541;49.894;10.886;2023-12-20T00:41:18;12.13;;;8.50;;
60700;SDS011;46541;49.894;10.886;2023-12-20T00:43:45;16.15;;;8.93;;
60700;SDS011;46541;49.894;10.886;2023-12-20T00:46:12;14.10;;;8.20;;
60700;SDS011;46541;49.894;10.886;2023-12-20T00:48:39;12.05;;;7.93;;
60700;SDS011;46541;49.894;10.886;2023-12-20T00:51:08;12.02;;;7.82;;
60700;SDS011;46541;49.894;10.886;2023-12-20T00:53:35;13.10;;;7.28;;
60700;SDS011;46541;49.894;10.886;2023-12-20T00:56:02;9.57;;;7.20;;
60700;SDS011;46541;49.894;10.886;2023-12-20T00:58:29;8.27;;;6.32;;
60700;SDS011;46541;49.894;10.886;2023-12-20T01:00:55;10.43;;;6.63;;
60700;SDS011;46541;49.894;10.886;2023-12-20T01:03:22;8.10;;;6.18;;
60700;SDS011;46541;49.894;10.886;2023-12-20T01:05:49;11.63;;;6.38;;
60700;SDS011;46541;49.894;10.886;2023-12-20T01:08:16;7.88;;;5.97;;
60700;SDS011;46541;49.894;10.886;2023-12-20T01:10:43;8.07;;;5.28;;
60700;SDS011;46541;49.894;10.886;2023-12-20T01:13:10;5.85;;;4.38;;
60700;SDS011;46541;49.894;10.886;2023-12-20T01:15:36;6.47;;;3.95;;
60700;SDS011;46541;49.894;10.886;2023-12-20T01:18:03;7.45;;;4.47;;
60700;SDS011;46541;49.894;10.886;2023-12-20T01:20:31;5.82;;;3.75;;
60700;SDS011;46541;49.894;10.886;2023-12-20T01:22:57;4.85;;;3.70;;
60700;SDS011;46541;49.894;10.886;2023-12-20T01:25:24;4.47;;;3.60;;
60700;SDS011;46541;49.894;10.886;2023-12-20T01:27:51;3.58;;;2.67;;
60700;SDS011;46541;49.894;10.886;2023-12-20T01:30:18;3.40;;;2.55;;
60700;SDS011;46541;49.894;10.886;2023-12-20T01:32:44;3.22;;;2.72;;
60700;SDS011;46541;49.894;10.886;2023-12-20T01:35:11;3.80;;;2.55;;
60700;SDS011;46541;49.894;10.886;2023-12-20T01:37:39;6.88;;;2.47;;
60700;SDS011;46541;49.894;10.886;2023-12-20T01:40:06;2.97;;;2.47;;
60700;SDS011;46541;49.894;10.886;2023-12-20T01:42:34;4.07;;;2.00;;
60700;SDS011;46541;49.894;10.886;2023-12-20T01:45:01;4.97;;;2.13;;
60700;SDS011;46541;49.894;10.886;2023-12-20T01:47:28;2.58;;;2.20;;
60700;SDS011;46541;49.894;10.886;2023-12-20T01:49:55;2.55;;;2.10;;
60700;SDS011;46541;49.894;10.886;2023-12-20T01:52:23;2.65;;;1.67;;
60700;SDS011;46541;49.894;10.886;2023-12-20T01:54:52;2.70;;;1.73;;
60700;SDS011;46541;49.894;10.886;2023-12-20T01:57:21;2.20;;;1.50;;
60700;SDS011;46541;49.894;10.886;2023-12-20T01:59:47;2.10;;;1.58;;
60700;SDS011;46541;49.894;10.886;2023-12-20T02:02:14;1.75;;;1.50;;
60700;SDS011;46541;49.894;10.886;2023-12-20T02:04:41;2.03;;;1.50;;
60700;SDS011;46541;49.894;10.886;2023-12-20T02:07:08;2.10;;;1.50;;
60700;SDS011;46541;49.894;10.886;2023-12-20T02:09:36;1.88;;;1.67;;
60700;SDS011;46541;49.894;10.886;2023-12-20T02:12:04;1.98;;;1.55;;
60700;SDS011;46541;49.894;10.886;2023-12-20T02:14:32;2.45;;;1.40;;
60700;SDS011;46541;49.894;10.886;2023-12-20T02:16:58;2.67;;;1.60;;
60700;SDS011;46541;49.894;10.886;2023-12-20T02:19:25;2.92;;;1.70;;
60700;SDS011;46541;49.894;10.886;2023-12-20T02:22:04;3.33;;;1.90;;
60700;SDS011;46541;49.894;10.886;2023-12-20T02:24:32;4.38;;;1.90;;
60700;SDS011;46541;49.894;10.886;2023-12-20T02:26:59;3.13;;;1.45;;
60700;SDS011;46541;49.894;10.886;2023-12-20T02:29:26;1.95;;;1.45;;
60700;SDS011;46541;49.894;10.886;2023-12-20T02:31:53;2.05;;;1.23;;
60700;SDS011;46541;49.894;10.886;2023-12-20T02:34:20;1.70;;;1.42;;
60700;SDS011;46541;49.894;10.886;2023-12-20T02:36:46;2.00;;;1.58;;
60700;SDS011;46541;49.894;10.886;2023-12-20T02:39:13;3.17;;;1.48;;
60700;SDS011;46541;49.894;10.886;2023-12-20T02:41:40;1.52;;;1.35;;
60700;SDS011;46541;49.894;10.886;2023-12-20T02:44:07;1.52;;;1.35;;
60700;SDS011;46541;49.894;10.886;2023-12-20T02:46:34;2.53;;;1.50;;
60700;SDS011;46541;49.894;10.886;2023-12-20T02:49:01;1.67;;;0.95;;
60700;SDS011;46541;49.894;10.886;2023-12-20T02:51:27;1.70;;;1.35;;
60700;SDS011;46541;49.894;10.886;2023-12-20T02:53:54;2.25;;;1.50;;
60700;SDS011;46541;49.894;10.886;2023-12-20T02:56:21;2.28;;;1.02;;
60700;SDS011;46541;49.894;10.886;2023-12-20T02:58:47;1.25;;;1.15;;
60700;SDS011;46541;49.894;10.886;2023-12-20T03:01:14;1.52;;;1.20;;
60700;SDS011;46541;49.894;10.886;2023-12-20T03:03:41;1.55;;;1.25;;
60700;SDS011;46541;49.894;10.886;2023-12-20T03:06:08;1.77;;;1.30;;
60700;SDS011;46541;49.894;10.886;2023-12-20T03:08:35;1.02;;;0.90;;
60700;SDS011;46541;49.894;10.886;2023-12-20T03:11:01;1.15;;;1.02;;
60700;SDS011;46541;49.894;10.886;2023-12-20T03:13:28;1.75;;;1.17;;
60700;SDS011;46541;49.894;10.886;2023-12-20T03:15:55;1.38;;;1.00;;
60700;SDS011;46541;49.894;10.886;2023-12-20T03:18:22;1.50;;;0.93;;
60700;SDS011;46541;49.894;10.886;2023-12-20T03:20:48;1.75;;;1.00;;
60700;SDS011;46541;49.894;10.886;2023-12-20T03:23:16;1.10;;;0.93;;
60700;SDS011;46541;49.894;10.886;2023-12-20T03:25:43;1.80;;;1.10;;
60700;SDS011;46541;49.894;10.886;2023-12-20T03:28:10;1.17;;;0.85;;
60700;SDS011;46541;49.894;10.886;2023-12-20T03:30:37;1.05;;;0.82;;
60700;SDS011;46541;49.894;10.886;2023-12-20T03:33:04;0.60;;;0.60;;
60700;SDS011;46541;49.894;10.886;2023-12-20T03:35:31;1.10;;;0.90;;
60700;SDS011;46541;49.894;10.886;2023-12-20T03:37:57;1.13;;;0.80;;
60700;SDS011;46541;49.894;10.886;2023-12-20T03:40:26;1.40;;;0.70;;
60700;SDS011;46541;49.894;10.886;2023-12-20T03:42:53;0.88;;;0.40;;
60700;SDS011;46541;49.894;10.886;2023-12-20T03:45:19;0.55;;;0.55;;
60700;SDS011;46541;49.894;10.886;2023-12-20T03:47:46;0.40;;;0.40;;
60700;SDS011;46541;49.894;10.886;2023-12-20T03:50:14;0.73;;;0.40;;
60700;SDS011;46541;49.894;10.886;2023-12-20T03:52:41;0.82;;;0.50;;
60700;SDS011;46541;49.894;10.886;2023-12-20T03:55:08;0.52;;;0.47;;
60700;SDS011;46541;49.894;10.886;2023-12-20T03:57:35;0.60;;;0.32;;
60700;SDS011;46541;49.894;10.886;2023-12-20T04:00:01;1.27;;;0.75;;
60700;SDS011;46541;49.894;10.886;2023-12-20T04:02:28;1.60;;;0.50;;
60700;SDS011;46541;49.894;10.886;2023-12-20T04:04:55;0.30;;;0.30;;
60700;SDS011;46541;49.894;10.886;2023-12-20T04:07:22;0.65;;;0.22;;
60700;SDS011;46541;49.894;10.886;2023-12-20T04:09:49;0.40;;;0.25;;
60700;SDS011;46541;49.894;10.886;2023-12-20T04:12:15;0.50;;;0.40;;
60700;SDS011;46541;49.894;10.886;2023-12-20T04:14:42;0.80;;;0.50;;
60700;SDS011;46541;49.894;10.886;2023-12-20T04:17:09;1.50;;;0.45;;
60700;SDS011;46541;49.894;10.886;2023-12-20T04:19:36;0.50;;;0.30;;
60700;SDS011;46541;49.894;10.886;2023-12-20T04:22:03;0.60;;;0.40;;
60700;SDS011;46541;49.894;10.886;2023-12-20T04:24:30;2.10;;;0.40;;
60700;SDS011;46541;49.894;10.886;2023-12-20T04:26:56;0.52;;;0.22;;
60700;SDS011;46541;49.894;10.886;2023-12-20T04:29:23;0.50;;;0.32;;
60700;SDS011;46541;49.894;10.886;2023-12-20T04:31:50;0.20;;;0.20;;
60700;SDS011;46541;49.894;10.886;2023-12-20T04:34:18;0.30;;;0.30;;
60700;SDS011;46541;49.894;10.886;2023-12-20T04:36:45;0.40;;;0.40;;
60700;SDS011;46541;49.894;10.886;2023-12-20T04:39:12;0.93;;;0.40;;
60700;SDS011;46541;49.894;10.886;2023-12-20T04:41:41;0.63;;;0.40;;
60700;SDS011;46541;49.894;10.886;2023-12-20T04:44:07;1.00;;;0.63;;
60700;SDS011;46541;49.894;10.886;2023-12-20T04:46:34;1.10;;;0.40;;
60700;SDS011;46541;49.894;10.886;2023-12-20T04:49:01;0.68;;;0.40;;
60700;SDS011;46541;49.894;10.886;2023-12-20T04:51:28;0.40;;;0.40;;
60700;SDS011;46541;49.894;10.886;2023-12-20T04:53:55;0.50;;;0.40;;
60700;SDS011;46541;49.894;10.886;2023-12-20T04:56:22;0.40;;;0.40;;
60700;SDS011;46541;49.894;10.886;2023-12-20T04:58:49;0.40;;;0.40;;
60700;SDS011;46541;49.894;10.886;2023-12-20T05:01:15;0.50;;;0.40;;
60700;SDS011;46541;49.894;10.886;2023-12-20T05:03:43;0.85;;;0.60;;
60700;SDS011;46541;49.894;10.886;2023-12-20T05:06:10;0.50;;;0.50;;
60700;SDS011;46541;49.894;10.886;2023-12-20T05:08:37;0.40;;;0.40;;
60700;SDS011;46541;49.894;10.886;2023-12-20T05:11:03;0.73;;;0.40;;
60700;SDS011;46541;49.894;10.886;2023-12-20T05:13:30;0.80;;;0.70;;
60700;SDS011;46541;49.894;10.886;2023-12-20T05:16:10;1.25;;;0.70;;
60700;SDS011;46541;49.894;10.886;2023-12-20T05:18:37;0.98;;;0.77;;
60700;SDS011;46541;49.894;10.886;2023-12-20T05:21:03;0.77;;;0.75;;
60700;SDS011;46541;49.894;10.886;2023-12-20T05:23:30;1.13;;;0.85;;
60700;SDS011;46541;49.894;10.886;2023-12-20T05:25:57;1.17;;;0.85;;
60700;SDS011;46541;49.894;10.886;2023-12-20T05:28:25;1.17;;;0.90;;
60700;SDS011;46541;49.894;10.886;2023-12-20T05:30:52;2.65;;;1.60;;
60700;SDS011;46541;49.894;10.886;2023-12-20T05:33:19;16.20;;;5.30;;
60700;SDS011;46541;49.894;10.886;2023-12-20T05:35:46;9.95;;;3.03;;
60700;SDS011;46541;49.894;10.886;2023-12-20T05:38:13;1.67;;;0.90;;
60700;SDS011;46541;49.894;10.886;2023-12-20T05:40:39;3.15;;;0.95;;
60700;SDS011;46541;49.894;10.886;2023-12-20T05:43:06;0.88;;;0.80;;
60700;SDS011;46541;49.894;10.886;2023-12-20T05:45:33;1.02;;;0.73;;
60700;SDS011;46541;49.894;10.886;2023-12-20T05:48:00;1.13;;;0.88;;
60700;SDS011;46541;49.894;10.886;2023-12-20T05:50:27;0.95;;;0.70;;
60700;SDS011;46541;49.894;10.886;2023-12-20T05:52:54;0.73;;;0.70;;
60700;SDS011;46541;49.894;10.886;2023-12-20T05:55:21;1.27;;;1.02;;
60700;SDS011;46541;49.894;10.886;2023-12-20T05:57:48;1.17;;;1.00;;
60700;SDS011;46541;49.894;10.886;2023-12-20T06:00:15;0.82;;;0.82;;
60700;SDS011;46541;49.894;10.886;2023-12-20T06:02:42;1.30;;;1.10;;
60700;SDS011;46541;49.894;10.886;2023-12-20T06:05:09;1.00;;;0.70;;
60700;SDS011;46541;49.894;10.886;2023-12-20T06:07:36;0.88;;;0.70;;
60700;SDS011;46541;49.894;10.886;2023-12-20T06:10:03;1.20;;;0.90;;
60700;SDS011;46541;49.894;10.886;2023-12-20T06:12:32;0.68;;;0.68;;
60700;SDS011;46541;49.894;10.886;2023-12-20T06:15:02;2.78;;;0.95;;
60700;SDS011;46541;49.894;10.886;2023-12-20T06:17:29;0.85;;;0.85;;
60700;SDS011;46541;49.894;10.886;2023-12-20T06:19:57;1.10;;;1.00;;
60700;SDS011;46541;49.894;10.886;2023-12-20T06:22:24;3.22;;;1.15;;
60700;SDS011;46541;49.894;10.886;2023-12-20T06:24:51;1.83;;;1.00;;
60700;SDS011;46541;49.894;10.886;2023-12-20T06:27:18;1.95;;;1.10;;
60700;SDS011;46541;49.894;10.886;2023-12-20T06:29:44;2.95;;;1.20;;
60700;SDS011;46541;49.894;10.886;2023-12-20T06:32:11;2.03;;;1.48;;
60700;SDS011;46541;49.894;10.886;2023-12-20T06:34:38;3.20;;;1.50;;
60700;SDS011;46541;49.894;10.886;2023-12-20T06:37:05;1.13;;;0.98;;
60700;SDS011;46541;49.894;10.886;2023-12-20T06:39:32;2.17;;;1.33;;
60700;SDS011;46541;49.894;10.886;2023-12-20T06:42:00;2.50;;;1.33;;
60700;SDS011;46541;49.894;10.886;2023-12-20T06:44:26;1.60;;;1.40;;
60700;SDS011;46541;49.894;10.886;2023-12-20T06:46:53;2.92;;;1.30;;
60700;SDS011;46541;49.894;10.886;2023-12-20T06:49:20;1.63;;;1.48;;
60700;SDS011;46541;49.894;10.886;2023-12-20T06:51:47;1.83;;;1.73;;
60700;SDS011;46541;49.894;10.886;2023-12-20T06:54:14;1.60;;;1.50;;
60700;SDS011;46541;49.894;10.886;2023-12-20T06:56:40;2.88;;;1.63;;
60700;SDS011;46541;49.894;10.886;2023-12-20T06:59:07;2.63;;;1.50;;
60700;SDS011;46541;49.894;10.886;2023-12-20T07:01:34;3.50;;;2.05;;
60700;SDS011;46541;49.894;10.886;2023-12-20T07:04:01;2.72;;;2.00;;
60700;SDS011;46541;49.894;10.886;2023-12-20T07:06:28;4.47;;;2.22;;
60700;SDS011;46541;49.894;10.886;2023-12-20T07:08:54;3.13;;;2.22;;
60700;SDS011;46541;49.894;10.886;2023-12-20T07:11:21;4.00;;;2.38;;
60700;SDS011;46541;49.894;10.886;2023-12-20T07:13:48;2.67;;;1.92;;
60700;SDS011;46541;49.894;10.886;2023-12-20T07:16:15;7.38;;;2.40;;
60700;SDS011;46541;49.894;10.886;2023-12-20T07:18:42;4.93;;;1.98;;
60700;SDS011;46541;49.894;10.886;2023-12-20T07:21:09;3.13;;;2.17;;
60700;SDS011;46541;49.894;10.886;2023-12-20T07:23:36;2.80;;;1.80;;
60700;SDS011;46541;49.894;10.886;2023-12-20T07:26:02;5.55;;;3.25;;
60700;SDS011;46541;49.894;10.886;2023-12-20T07:28:30;4.07;;;2.88;;
60700;SDS011;46541;49.894;10.886;2023-12-20T07:30:57;5.72;;;3.10;;
60700;SDS011;46541;49.894;10.886;2023-12-20T07:33:24;4.13;;;3.25;;
60700;SDS011;46541;49.894;10.886;2023-12-20T07:35:50;2.95;;;2.65;;
60700;SDS011;46541;49.894;10.886;2023-12-20T07:38:18;2.78;;;2.30;;
60700;SDS011;46541;49.894;10.886;2023-12-20T07:40:44;3.58;;;2.50;;
60700;SDS011;46541;49.894;10.886;2023-12-20T07:43:11;20.13;;;9.82;;
60700;SDS011;46541;49.894;10.886;2023-12-20T07:45:38;5.35;;;3.08;;
60700;SDS011;46541;49.894;10.886;2023-12-20T07:48:06;3.22;;;2.60;;
60700;SDS011;46541;49.894;10.886;2023-12-20T07:50:33;5.32;;;3.10;;
60700;SDS011;46541;49.894;10.886;2023-12-20T07:53:02;4.00;;;2.95;;
60700;SDS011;46541;49.894;10.886;2023-12-20T07:55:29;4.80;;;3.42;;
60700;SDS011;46541;49.894;10.886;2023-12-20T07:57:57;4.80;;;3.42;;
60700;SDS011;46541;49.894;10.886;2023-12-20T08:00:24;4.40;;;3.47;;
60700;SDS011;46541;49.894;10.886;2023-12-20T08:02:51;7.28;;;4.25;;
60700;SDS011;46541;49.894;10.886;2023-12-20T08:05:18;7.13;;;5.53;;
60700;SDS011;46541;49.894;10.886;2023-12-20T08:07:44;8.32;;;6.75;;
60700;SDS011;46541;49.894;10.886;2023-12-20T08:10:12;8.05;;;6.32;;
60700;SDS011;46541;49.894;10.886;2023-12-20T08:12:39;7.20;;;4.82;;
60700;SDS011;46541;49.894;10.886;2023-12-20T08:15:06;8.70;;;3.88;;
60700;SDS011;46541;49.894;10.886;2023-12-20T08:17:33;5.32;;;4.28;;
60700;SDS011;46541;49.894;10.886;2023-12-20T08:20:00;5.55;;;2.63;;
60700;SDS011;46541;49.894;10.886;2023-12-20T08:22:27;5.10;;;4.13;;
60700;SDS011;46541;49.894;10.886;2023-12-20T08:24:54;3.58;;;2.92;;
60700;SDS011;46541;49.894;10.886;2023-12-20T08:27:21;4.20;;;3.00;;
60700;SDS011;46541;49.894;10.886;2023-12-20T08:29:47;6.80;;;2.78;;
60700;SDS011;46541;49.894;10.886;2023-12-20T08:32:16;3.47;;;2.65;;
60700;SDS011;46541;49.894;10.886;2023-12-20T08:34:42;6.18;;;3.30;;
60700;SDS011;46541;49.894;10.886;2023-12-20T08:37:09;4.53;;;3.10;;
60700;SDS011;46541;49.894;10.886;2023-12-20T08:39:36;6.72;;;2.60;;
60700;SDS011;46541;49.894;10.886;2023-12-20T08:42:03;3.67;;;2.33;;
60700;SDS011;46541;49.894;10.886;2023-12-20T08:44:30;4.20;;;1.88;;
60700;SDS011;46541;49.894;10.886;2023-12-20T08:46:57;3.25;;;2.30;;
60700;SDS011;46541;49.894;10.886;2023-12-20T08:49:23;5.38;;;2.67;;
60700;SDS011;46541;49.894;10.886;2023-12-20T08:51:52;3.97;;;2.10;;
60700;SDS011;46541;49.894;10.886;2023-12-20T08:54:19;3.70;;;2.08;;
60700;SDS011;46541;49.894;10.886;2023-12-20T08:56:45;6.22;;;2.50;;
60700;SDS011;46541;49.894;10.886;2023-12-20T08:59:12;5.05;;;2.03;;
60700;SDS011;46541;49.894;10.886;2023-12-20T09:01:39;5.50;;;2.20;;
60700;SDS011;46541;49.894;10.886;2023-12-20T09:04:06;5.20;;;3.83;;
60700;SDS011;46541;49.894;10.886;2023-12-20T09:06:33;4.47;;;2.22;;
60700;SDS011;46541;49.894;10.886;2023-12-20T09:08:59;4.13;;;2.50;;
60700;SDS011;46541;49.894;10.886;2023-12-20T09:11:26;5.57;;;2.50;;
60700;SDS011;46541;49.894;10.886;2023-12-20T09:13:53;5.05;;;2.85;;
60700;SDS011;46541;49.894;10.886;2023-12-20T09:16:20;12.82;;;5.85;;
60700;SDS011;46541;49.894;10.886;2023-12-20T09:18:47;8.80;;;4.03;;
60700;SDS011;46541;49.894;10.886;2023-12-20T09:21:14;8.57;;;2.95;;
60700;SDS011;46541;49.894;10.886;2023-12-20T09:23:40;11.73;;;3.55;;
60700;SDS011;46541;49.894;10.886;2023-12-20T09:26:07;12.32;;;4.50;;
60700;SDS011;46541;49.894;10.886;2023-12-20T09:28:34;12.45;;;4.63;;
60700;SDS011;46541;49.894;10.886;2023-12-20T09:31:03;21.48;;;8.75;;
60700;SDS011;46541;49.894;10.886;2023-12-20T09:33:32;24.45;;;11.18;;
60700;SDS011;46541;49.894;10.886;2023-12-20T09:35:59;21.98;;;10.43;;
60700;SDS011;46541;49.894;10.886;2023-12-20T09:38:27;11.38;;;5.30;;
60700;SDS011;46541;49.894;10.886;2023-12-20T09:40:53;14.85;;;6.95;;
60700;SDS011;46541;49.894;10.886;2023-12-20T09:43:21;15.55;;;5.55;;
60700;SDS011;46541;49.894;10.886;2023-12-20T09:45:52;15.48;;;7.22;;
60700;SDS011;46541;49.894;10.886;2023-12-20T09:48:20;9.15;;;4.70;;
60700;SDS011;46541;49.894;10.886;2023-12-20T09:50:47;11.02;;;3.90;;
60700;SDS011;46541;49.894;10.886;2023-12-20T09:53:19;5.72;;;3.75;;
60700;SDS011;46541;49.894;10.886;2023-12-20T09:55:47;8.45;;;4.13;;
60700;SDS011;46541;49.894;10.886;2023-12-20T09:58:15;8.05;;;3.13;;
60700;SDS011;46541;49.894;10.886;2023-12-20T10:00:43;12.60;;;4.47;;
60700;SDS011;46541;49.894;10.886;2023-12-20T10:03:10;8.43;;;3.30;;
60700;SDS011;46541;49.894;10.886;2023-12-20T10:05:38;9.30;;;3.13;;
60700;SDS011;46541;49.894;10.886;2023-12-20T10:08:09;13.25;;;5.25;;
60700;SDS011;46541;49.894;10.886;2023-12-20T10:10:36;12.13;;;4.97;;
60700;SDS011;46541;49.894;10.886;2023-12-20T10:13:13;13.95;;;6.20;;
60700;SDS011;46541;49.894;10.886;2023-12-20T10:15:40;9.43;;;4.05;;
60700;SDS011;46541;49.894;10.886;2023-12-20T10:18:08;9.07;;;3.78;;
60700;SDS011;46541;49.894;10.886;2023-12-20T10:20:35;11.98;;;4.20;;
60700;SDS011;46541;49.894;10.886;2023-12-20T10:23:02;7.47;;;2.15;;
60700;SDS011;46541;49.894;10.886;2023-12-20T10:25:30;8.57;;;2.13;;
60700;SDS011;46541;49.894;10.886;2023-12-20T10:28:16;7.38;;;2.72;;
60700;SDS011;46541;49.894;10.886;2023-12-20T10:30:45;16.10;;;6.65;;
60700;SDS011;46541;49.894;10.886;2023-12-20T10:33:12;8.38;;;2.88;;
60700;SDS011;46541;49.894;10.886;2023-12-20T10:35:39;8.10;;;2.58;;
60700;SDS011;46541;49.894;10.886;2023-12-20T10:38:11;6.18;;;2.05;;
60700;SDS011;46541;49.894;10.886;2023-12-20T10:40:40;35.30;;;13.98;;
60700;SDS011;46541;49.894;10.886;2023-12-20T10:43:07;15.35;;;6.25;;
60700;SDS011;46541;49.894;10.886;2023-12-20T10:45:35;7.20;;;2.45;;
60700;SDS011;46541;49.894;10.886;2023-12-20T10:48:03;6.93;;;4.07;;
60700;SDS011;46541;49.894;10.886;2023-12-20T10:50:31;7.25;;;2.60;;
60700;SDS011;46541;49.894;10.886;2023-12-20T10:52:58;9.75;;;3.70;;
60700;SDS011;46541;49.894;10.886;2023-12-20T10:55:26;8.30;;;2.40;;
60700;SDS011;46541;49.894;10.886;2023-12-20T10:57:54;5.25;;;1.55;;
60700;SDS011;46541;49.894;10.886;2023-12-20T11:00:39;11.40;;;2.72;;
60700;SDS011;46541;49.894;10.886;2023-12-20T11:03:11;8.70;;;1.65;;
60700;SDS011;46541;49.894;10.886;2023-12-20T11:05:53;9.52;;;2.15;;
60700;SDS011;46541;49.894;10.886;2023-12-20T11:08:32;3.55;;;1.17;;
60700;SDS011;46541;49.894;10.886;2023-12-20T11:11:07;5.35;;;1.40;;
60700;SDS011;46541;49.894;10.886;2023-12-20T11:14:23;7.57;;;2.42;;
60700;SDS011;46541;49.894;10.886;2023-12-20T11:16:32;9.13;;;3.42;;
60700;SDS011;46541;49.894;10.886;2023-12-20T11:19:13;4.78;;;1.60;;
60700;SDS011;46541;49.894;10.886;2023-12-20T11:21:40;6.28;;;1.60;;
60700;SDS011;46541;49.894;10.886;2023-12-20T11:24:08;5.20;;;1.45;;
60700;SDS011;46541;49.894;10.886;2023-12-20T11:26:36;3.90;;;1.33;;
60700;SDS011;46541;49.894;10.886;2023-12-20T11:34:50;7.30;;;2.10;;
60700;SDS011;46541;49.894;10.886;2023-12-20T11:37:20;6.78;;;1.77;;
60700;SDS011;46541;49.894;10.886;2023-12-20T11:39:54;7.60;;;1.90;;
60700;SDS011;46541;49.894;10.886;2023-12-20T11:42:22;3.83;;;1.50;;
60700;SDS011;46541;49.894;10.886;2023-12-20T11:44:49;6.30;;;2.00;;
60700;SDS011;46541;49.894;10.886;2023-12-20T11:47:16;9.60;;;1.85;;
60700;SDS011;46541;49.894;10.886;2023-12-20T11:49:48;11.68;;;1.92;;
60700;SDS011;46541;49.894;10.886;2023-12-20T11:52:15;6.40;;;1.60;;
60700;SDS011;46541;49.894;10.886;2023-12-20T11:54:42;9.57;;;1.58;;
60700;SDS011;46541;49.894;10.886;2023-12-20T11:57:09;6.60;;;2.10;;
60700;SDS011;46541;49.894;10.886;2023-12-20T11:59:36;8.27;;;1.67;;
60700;SDS011;46541;49.894;10.886;2023-12-20T12:02:03;9.23;;;1.70;;
60700;SDS011;46541;49.894;10.886;2023-12-20T12:04:30;5.65;;;1.08;;
60700;SDS011;46541;49.894;10.886;2023-12-20T12:06:57;10.80;;;1.73;;
60700;SDS011;46541;49.894;10.886;2023-12-20T12:09:24;8.27;;;1.60;;
60700;SDS011;46541;49.894;10.886;2023-12-20T12:11:50;10.50;;;2.08;;
60700;SDS011;46541;49.894;10.886;2023-12-20T12:14:17;8.43;;;2.13;;
60700;SDS011;46541;49.894;10.886;2023-12-20T12:16:45;4.90;;;1.80;;
60700;SDS011;46541;49.894;10.886;2023-12-20T12:19:24;9.45;;;2.38;;
60700;SDS011;46541;49.894;10.886;2023-12-20T12:22:08;11.20;;;3.67;;
60700;SDS011;46541;49.894;10.886;2023-12-20T12:24:43;6.85;;;1.63;;
60700;SDS011;46541;49.894;10.886;2023-12-20T12:27:11;11.60;;;2.90;;
60700;SDS011;46541;49.894;10.886;2023-12-20T12:29:38;8.45;;;3.55;;
60700;SDS011;46541;49.894;10.886;2023-12-20T12:32:06;10.57;;;3.63;;
60700;SDS011;46541;49.894;10.886;2023-12-20T12:34:34;11.88;;;3.83;;
60700;SDS011;46541;49.894;10.886;2023-12-20T12:37:03;12.73;;;2.72;;
60700;SDS011;46541;49.894;10.886;2023-12-20T12:39:30;10.90;;;3.00;;
60700;SDS011;46541;49.894;10.886;2023-12-20T12:41:57;11.00;;;4.07;;
60700;SDS011;46541;49.894;10.886;2023-12-20T12:44:23;8.20;;;2.80;;
60700;SDS011;46541;49.894;10.886;2023-12-20T12:46:51;4.93;;;3.00;;
60700;SDS011;46541;49.894;10.886;2023-12-20T12:49:19;6.68;;;2.78;;
60700;SDS011;46541;49.894;10.886;2023-12-20T12:51:48;4.13;;;1.63;;
60700;SDS011;46541;49.894;10.886;2023-12-20T12:54:15;8.13;;;2.40;;
60700;SDS011;46541;49.894;10.886;2023-12-20T12:56:43;5.43;;;2.00;;
60700;SDS011;46541;49.894;10.886;2023-12-20T12:59:10;5.53;;;1.75;;
60700;SDS011;46541;49.894;10.886;2023-12-20T13:01:37;10.52;;;2.60;;
60700;SDS011;46541;49.894;10.886;2023-12-20T13:04:05;6.28;;;1.60;;
60700;SDS011;46541;49.894;10.886;2023-12-20T13:06:37;6.13;;;1.83;;
60700;SDS011;46541;49.894;10.886;2023-12-20T13:09:04;3.63;;;1.20;;
60700;SDS011;46541;49.894;10.886;2023-12-20T13:11:31;7.13;;;1.25;;
60700;SDS011;46541;49.894;10.886;2023-12-20T13:14:01;7.88;;;2.08;;
60700;SDS011;46541;49.894;10.886;2023-12-20T13:16:29;7.50;;;2.05;;
60700;SDS011;46541;49.894;10.886;2023-12-20T13:18:57;5.47;;;1.50;;
60700;SDS011;46541;49.894;10.886;2023-12-20T13:21:25;5.13;;;1.85;;
60700;SDS011;46541;49.894;10.886;2023-12-20T13:23:52;7.38;;;1.60;;
60700;SDS011;46541;49.894;10.886;2023-12-20T13:26:20;6.68;;;1.60;;
60700;SDS011;46541;49.894;10.886;2023-12-20T13:28:46;7.03;;;1.65;;
60700;SDS011;46541;49.894;10.886;2023-12-20T13:31:13;7.15;;;1.73;;
60700;SDS011;46541;49.894;10.886;2023-12-20T13:33:40;7.78;;;2.95;;
60700;SDS011;46541;49.894;10.886;2023-12-20T13:36:07;3.40;;;1.38;;
60700;SDS011;46541;49.894;10.886;2023-12-20T13:38:34;8.48;;;1.65;;
60700;SDS011;46541;49.894;10.886;2023-12-20T13:41:01;6.03;;;1.42;;
60700;SDS011;46541;49.894;10.886;2023-12-20T13:43:28;6.70;;;1.85;;
60700;SDS011;46541;49.894;10.886;2023-12-20T13:45:55;5.38;;;1.58;;
60700;SDS011;46541;49.894;10.886;2023-12-20T13:48:22;8.95;;;2.78;;
60700;SDS011;46541;49.894;10.886;2023-12-20T13:50:49;7.10;;;2.05;;
60700;SDS011;46541;49.894;10.886;2023-12-20T13:53:16;7.80;;;1.73;;
60700;SDS011;46541;49.894;10.886;2023-12-20T13:55:43;8.18;;;1.25;;
60700;SDS011;46541;49.894;10.886;2023-12-20T13:58:12;6.32;;;2.20;;
60700;SDS011;46541;49.894;10.886;2023-12-20T14:00:39;8.05;;;2.20;;
60700;SDS011;46541;49.894;10.886;2023-12-20T14:03:06;8.25;;;1.95;;
60700;SDS011;46541;49.894;10.886;2023-12-20T14:05:33;10.38;;;2.00;;
60700;SDS011;46541;49.894;10.886;2023-12-20T14:08:01;5.78;;;2.03;;
60700;SDS011;46541;49.894;10.886;2023-12-20T14:10:28;10.38;;;2.47;;
60700;SDS011;46541;49.894;10.886;2023-12-20T14:12:56;8.95;;;2.75;;
60700;SDS011;46541;49.894;10.886;2023-12-20T14:15:23;4.45;;;1.60;;
60700;SDS011;46541;49.894;10.886;2023-12-20T14:17:51;7.45;;;2.67;;
60700;SDS011;46541;49.894;10.886;2023-12-20T14:20:19;4.15;;;1.50;;
60700;SDS011;46541;49.894;10.886;2023-12-20T14:22:46;4.35;;;2.53;;
60700;SDS011;46541;49.894;10.886;2023-12-20T14:25:13;8.23;;;2.10;;
60700;SDS011;46541;49.894;10.886;2023-12-20T14:27:41;7.10;;;2.20;;
60700;SDS011;46541;49.894;10.886;2023-12-20T14:30:12;6.97;;;1.70;;
60700;SDS011;46541;49.894;10.886;2023-12-20T14:32:41;12.52;;;3.72;;
60700;SDS011;46541;49.894;10.886;2023-12-20T14:35:08;9.95;;;2.08;;
60700;SDS011;46541;49.894;10.886;2023-12-20T14:37:35;6.35;;;1.60;;
60700;SDS011;46541;49.894;10.886;2023-12-20T14:40:09;7.80;;;1.70;;